• Join FlightAware (Why Join?)
  • Login
  • US Flag 
02:23PM EDT


 

Airport Tracker/Info


-or-


 

Live Flight TrackerFlight Track Log ✈ N1576C ✈ 25-Mar-2014 ✈ KCOI - KCOI

Flight Track Log - Related Links

Times and Time Zones

All times are in EDT time to prevent confusion due to time zone crossing. See the N1576C flight status page for this flight to view local times or setup timezone preferences in your user account.

Time Position Orientation Groundspeed Altitude Reporting Facility
EDT Latitude Longitude Course Direction KTS MPH feet Rate Location/Type
03:08PM 28.3167 -80.8500 270° West 78 90 2,100  Level Orlando TRACON
03:08PM 28.3167 -80.8667 270° West 75 86 2,200 420 Climbing Orlando TRACON
03:09PM 28.3000 -80.8667 180° South 108 124 2,900 420 Climbing Orlando TRACON
03:10PM 28.2833 -80.8333 120° Southeast 115 132 3,100 60 Climbing Orlando TRACON
03:11PM 28.2667 -80.8000 120° Southeast 118 136 3,100  Level Orlando TRACON
03:12PM 28.2333 -80.7833 156° South 120 138 3,100  Level Orlando TRACON
03:13PM 28.2167 -80.7500 120° Southeast 122 140 3,100  Level Orlando TRACON
03:14PM 28.1833 -80.7167 139° Southeast 123 142 3,100  Level Orlando TRACON
03:15PM 28.1667 -80.7000 139° Southeast 124 143 3,100 -60 Level Orlando TRACON
03:16PM 28.1500 -80.6667 120° Southeast 112 129 3,000  Descending Orlando TRACON
03:17PM 28.1167 -80.6500 156° South 112 129 3,100  Climbing Orlando TRACON
03:18PM 28.1000 -80.6333 139° Southeast 104 120 3,100  Level Orlando TRACON
03:20PM 28.0833 -80.6500 221° Southwest 73 84 3,100  Level Orlando TRACON
03:20PM 28.1000 -80.6667 319° Northwest 91 105 3,100 -60 Level Orlando TRACON
03:21PM 28.1000 -80.6500 90° East 124 143 3,000 -60 Descending Orlando TRACON
03:23PM 28.0833 -80.6333 139° Southeast 69 79 3,000  Level Orlando TRACON
03:24PM 28.1000 -80.6500 319° Northwest 82 94 3,100  Climbing Orlando TRACON
03:24PM 28.1000 -80.6833 270° West 88 101 3,100  Level Orlando TRACON
03:25PM 28.1167 -80.6833 360° North 106 122 3,100  Level Orlando TRACON
03:26PM 28.1000 -80.6500 120° Southeast 121 139 3,100 -60 Level Orlando TRACON
03:27PM 28.0833 -80.6333 139° Southeast 106 122 3,000 -60 Descending Orlando TRACON
03:29PM 28.0833 -80.6500 270° West 80 92 3,000  Level Orlando TRACON
03:30PM 28.0833 -80.6833 270° West 85 98 3,100  Climbing Orlando TRACON
03:31PM 28.1000 -80.7000 319° Northwest 81 93 3,100  Level Orlando TRACON
03:32PM 28.1000 -80.6667 90° East 126 145 3,100 -60 Level Orlando TRACON
03:33PM 28.1000 -80.6333 90° East 124 143 3,000 -60 Descending Orlando TRACON
03:34PM 28.0833 -80.6167 139° Southeast 82 94 3,000  Level Orlando TRACON
03:35PM 28.0833 -80.6500 270° West 73 84 3,000  Level Orlando TRACON
03:36PM 28.1000 -80.6167 60° Northeast 125 144 3,100  Climbing Orlando TRACON
03:37PM 28.1000 -80.5833 90° East 127 146 3,000  Descending Orlando TRACON
03:38PM 28.1000 -80.5500 90° East 118 136 3,100  Climbing Orlando TRACON
03:39PM 28.1000 -80.5167 90° East 119 137 3,000 -60 Descending Orlando TRACON
03:40PM 28.1000 -80.4833 90° East 122 140 3,000 -240 Level Orlando TRACON
03:41PM 28.1000 -80.5000 270° West 71 82 2,500 -600 Descending Orlando TRACON
03:42PM 28.1167 -80.5167 319° Northwest 82 94 1,900 -480 Descending Orlando TRACON
03:43PM 28.1000 -80.5500 240° Southwest 89 102 1,600 -480 Descending Orlando TRACON
03:44PM 28.1000 -80.5667 270° West 76 87 1,000 -660 Descending Orlando TRACON
03:45PM 28.1000 -80.5833 270° West 68 78 400 -300 Descending Orlando TRACON
03:46PM 28.1000 -80.6000 270° West 71 82 500 60 Climbing Orlando TRACON